Airfield :
LOGIN :

Register | Disclaimer

   EN    FR    IT 

 










Legend :    VFR   Marginal VFR   IFR   Intensive IFR   Very Intensive IFR
Visi :
Ceiling :
>= 8 km
>= 3000ft
5 to 8 km
1000 to 3000 ft
1500m to 5 km
500 to 1000 ft
800 to 1500m
200 to 500 ft
< 800m
< 200 ft
Symbols :   Thunderstorms  Fog  Heavy snow  Heavy precipitations  Wind > 20 kt
SIGMETs :     Misc.  Thunderstorms  Icing  Turbulence  Mountain Waves  Volcanic Ashes






- Airport Elevation : 116 ft
- IATA code : ISC


EGHE - Scilly Isles / St Mary's

CURRENT METAR :
  • 190950Z 31006KT 9999 SCT025 12/09 Q1002

EXPIRED METARs :
  • 190920Z 31007KT 9999 SCT028 12/09 Q1002
  • 190850Z 31006KT 9999 VCSH SCT025 12/09 Q1002
  • 190820Z 31003KT 9999 VCSH FEW010 SCT025 12/010 Q1002
  • 190750Z 29003KT 9999 VCSH FEW012 SCT025CB 11/08 Q1001
  • 190720Z 00000KT 9999 VCSH FEW015 SCT030CB 10/07 Q1001 RESHRA
  • 190650Z 30006KT 9999 3000W SHRA SCT025CB 11/09 Q1001

TAF TAF EGHE
Valid from the 19 at 09:00 until the 19 at 18:00 UTC


190759Z 1909/1918 30009KT 9999 SCT025
TEMPO 1909/1918 6000 SHRA
PROB30
TEMPO 1909/1918 3000 +SHRA BKN010 BKN020CB



MET'MAP, your aeronautical weather chart ! - Copyright ORBIFLY December 2007 - Disclaimer

ORBIFLY MET'MAP TEAM :

Programming & Development : Alexandra Zaïnal
Concept & Development : Baudouin d'Aumeries
Co-Development & Prog : Marc-Olivier Méhu
Technical & hardware support : Manuel Goepfert

Contact : metmap@orbifly.com




SOURCES & CREDITS :

   NOAA